Time;durP1;ratioP1;P1;durP2;ratioP2;P2;SDS_P1;SDS_P2;PMS_P1;PMS_P2;Temp;Humidity;BMP_temperature;BMP_pressure;BME280_temperature;BME280_humidity;BME280_pressure;Samples;Min_cycle;Max_cycle;Signal;HPM_P1;HPM_P2
2023/05/02 00:01:01;;;;;;;7.12;3.30;;;;;;;13.26;99.77;99836.56;4496048;31;34801;-78
2023/05/02 00:03:47;;;;;;;5.37;2.80;;;;;;;12.88;100.00;99841.84;4494558;31;34879;-78
2023/05/02 00:06:34;;;;;;;6.60;2.73;;;;;;;12.95;100.00;99842.19;4494442;31;34507;-78
2023/05/02 00:09:21;;;;;;;5.25;2.20;;;;;;;13.53;97.64;99845.59;4494638;31;34101;-78
2023/05/02 00:12:07;;;;;;;4.78;2.12;;;;;;;12.63;100.00;99839.84;4493851;31;33777;-78
2023/05/02 00:14:53;;;;;;;4.47;1.80;;;;;;;13.23;97.86;99828.94;4490669;31;34200;-78
2023/05/02 00:17:41;;;;;;;4.57;1.80;;;;;;;13.34;96.82;99831.38;4491536;31;33736;-78
2023/05/02 00:20:27;;;;;;;5.53;1.73;;;;;;;13.12;94.34;99824.88;4467919;31;33139;-78
2023/05/02 00:23:14;;;;;;;4.37;1.60;;;;;;;13.30;92.34;99822.97;4494737;31;33396;-78
2023/05/02 00:26:00;;;;;;;4.30;1.73;;;;;;;13.44;84.10;99834.59;4492743;31;34173;-78
2023/05/02 00:28:47;;;;;;;4.47;1.60;;;;;;;13.81;83.19;99826.78;4494427;31;33728;-78
2023/05/02 00:31:34;;;;;;;4.10;1.73;;;;;;;14.04;83.35;99829.31;4468287;31;34162;-78
2023/05/02 00:34:21;;;;;;;4.60;1.80;;;;;;;13.07;93.57;99827.00;4470949;31;34633;-79
2023/05/02 00:37:07;;;;;;;4.85;1.87;;;;;;;13.48;93.57;99832.81;4493708;31;34233;-80
2023/05/02 00:39:54;;;;;;;5.70;2.40;;;;;;;13.43;92.98;99833.00;4493450;31;33715;-77
2023/05/02 00:42:40;;;;;;;4.25;2.12;;;;;;;12.35;100.00;99837.34;4495144;31;33225;-78
2023/05/02 00:45:27;;;;;;;3.87;1.90;;;;;;;12.46;100.00;99835.91;4494669;31;32630;-80
2023/05/02 00:48:13;;;;;;;2.73;1.40;;;;;;;13.05;95.37;99825.34;4481017;31;34160;-79
2023/05/02 00:51:05;;;;;;;6.05;1.55;;;;;;;13.04;84.96;99834.75;4493587;31;33299;-79
2023/05/02 00:53:51;;;;;;;4.55;1.50;;;;;;;13.43;79.45;99830.25;4482643;31;33264;-79
2023/05/02 00:56:41;;;;;;;4.12;1.70;;;;;;;13.19;80.73;99829.91;4491636;31;32725;-79
2023/05/02 00:59:27;;;;;;;3.20;1.40;;;;;;;13.10;80.43;99831.84;4494310;31;35112;-80
2023/05/02 01:02:39;;;;;;;3.97;1.65;;;;;;;13.68;76.23;99833.28;4471228;31;34536;-79
2023/05/02 01:05:49;;;;;;;5.20;1.62;;;;;;;13.78;73.43;99832.94;4489023;31;37139;-79
2023/05/02 01:08:42;;;;;;;3.97;1.60;;;;;;;13.75;75.12;99835.53;4480602;31;33706;-79
2023/05/02 01:11:48;;;;;;;3.75;1.60;;;;;;;13.85;74.00;99835.19;4482620;31;35162;-79
2023/05/02 01:14:41;;;;;;;3.50;1.60;;;;;;;14.01;73.65;99829.97;4471123;31;34536;-79
2023/05/02 01:17:31;;;;;;;3.30;1.70;;;;;;;14.44;70.28;99834.50;4471123;31;33193;-79
2023/05/02 01:20:19;;;;;;;3.00;1.37;;;;;;;14.21;71.92;99831.19;4469280;31;34314;-79
2023/05/02 01:23:24;;;;;;;3.83;1.58;;;;;;;14.34;69.22;99833.72;4491880;31;34114;-79
2023/05/02 01:26:31;;;;;;;5.85;1.60;;;;;;;14.52;66.42;99828.16;4482136;31;33620;-80
2023/05/02 01:29:19;;;;;;;3.33;1.50;;;;;;;14.62;64.43;99830.50;4482133;31;34246;-79
2023/05/02 01:32:07;;;;;;;3.58;1.58;;;;;;;14.43;65.55;99821.81;4493612;31;34680;-79
2023/05/02 01:34:55;;;;;;;3.42;1.45;;;;;;;14.39;65.06;99821.69;4479795;31;34793;-79
2023/05/02 01:37:44;;;;;;;4.00;1.40;;;;;;;14.54;64.90;99823.09;4480715;31;33767;-79
2023/05/02 01:40:32;;;;;;;2.47;1.40;;;;;;;14.70;64.49;99815.06;4479453;31;33355;-79
2023/05/02 01:43:22;;;;;;;3.50;1.50;;;;;;;14.90;62.91;99819.00;4483471;31;33712;-79
2023/05/02 01:46:09;;;;;;;3.15;1.50;;;;;;;14.90;62.19;99817.03;4484488;31;37389;-79
2023/05/02 01:48:56;;;;;;;3.23;1.50;;;;;;;14.68;62.60;99814.59;4484006;31;33722;-79
2023/05/02 01:51:46;;;;;;;3.97;1.50;;;;;;;14.94;62.82;99812.47;4471243;31;32221;-79
2023/05/02 01:54:34;;;;;;;4.03;1.50;;;;;;;15.09;62.28;99805.53;4483992;31;34753;-79
2023/05/02 01:57:21;;;;;;;4.45;1.42;;;;;;;14.98;62.50;99809.84;4481338;31;34058;-79
2023/05/02 02:00:08;;;;;;;5.53;1.55;;;;;;;14.90;62.31;99814.28;4495868;31;33724;-79
2023/05/02 02:02:57;;;;;;;3.97;1.60;;;;;;;14.95;62.00;99802.25;4484512;31;33458;-79
2023/05/02 02:05:46;;;;;;;3.97;1.52;;;;;;;14.66;62.99;99803.06;4496015;31;33547;-79
2023/05/02 02:08:33;;;;;;;2.78;1.30;;;;;;;14.87;61.76;99800.34;4472151;31;34013;-79
2023/05/02 02:11:45;;;;;;;3.72;1.30;;;;;;;14.79;62.70;99802.03;4483869;31;33680;-79
2023/05/02 02:14:45;;;;;;;3.57;1.70;;;;;;;14.69;62.99;99792.19;4480362;31;33236;-80
2023/05/02 02:17:37;;;;;;;4.07;1.80;;;;;;;14.64;63.05;99800.66;4472802;31;34594;-79
2023/05/02 02:20:24;;;;;;;3.60;1.40;;;;;;;14.54;63.47;99793.59;4495844;31;34201;-79
2023/05/02 02:23:11;;;;;;;5.47;1.70;;;;;;;14.57;63.52;99794.84;4481991;31;34117;-79
2023/05/02 02:26:00;;;;;;;3.90;1.77;;;;;;;14.23;64.51;99799.41;4470846;31;34173;-79
2023/05/02 02:28:47;;;;;;;3.50;1.67;;;;;;;14.23;65.02;99793.91;4482902;31;34762;-79
2023/05/02 02:31:34;;;;;;;3.58;1.80;;;;;;;14.20;65.85;99788.22;4482651;31;34027;-79
2023/05/02 02:34:21;;;;;;;4.03;1.83;;;;;;;14.40;64.77;99791.03;4477878;31;34512;-79
2023/05/02 02:37:17;;;;;;;3.30;1.62;;;;;;;14.33;64.94;99790.75;4495729;31;34806;-79
2023/05/02 02:40:22;;;;;;;4.43;1.65;;;;;;;14.37;65.83;99788.13;4483906;31;35399;-79
2023/05/02 02:43:12;;;;;;;3.67;1.75;;;;;;;14.52;66.52;99795.87;4469012;31;34213;-78
2023/05/02 02:46:39;;;;;;;3.22;1.80;;;;;;;14.33;66.85;99787.19;4494042;31;33324;-79
2023/05/02 02:49:52;;;;;;;4.55;1.83;;;;;;;14.20;67.07;99789.03;4402215;32;33296;-79
2023/05/02 02:53:12;;;;;;;4.28;2.00;;;;;;;13.63;70.73;99795.72;4495215;31;34550;-79
2023/05/02 02:56:03;;;;;;;4.25;1.70;;;;;;;14.09;68.10;99802.37;4482537;31;34003;-78
2023/05/02 02:59:01;;;;;;;4.57;2.15;;;;;;;13.76;71.35;99793.91;4495437;31;33590;-79
2023/05/02 03:02:07;;;;;;;5.03;2.10;;;;;;;13.79;70.50;99792.44;4482765;31;34751;-79
2023/05/02 03:04:53;;;;;;;4.80;2.03;;;;;;;13.85;70.59;99794.66;4480762;31;33873;-78
2023/05/02 03:07:41;;;;;;;4.93;1.90;;;;;;;13.54;73.02;99797.66;4479763;31;34206;-78
2023/05/02 03:10:28;;;;;;;4.18;1.80;;;;;;;14.21;70.14;99793.41;4483230;31;34287;-79
2023/05/02 03:13:14;;;;;;;3.43;1.80;;;;;;;14.21;70.19;99800.88;4494816;31;32943;-78
2023/05/02 03:16:12;;;;;;;6.00;1.90;;;;;;;14.36;69.29;99805.81;4491075;31;34721;-79
2023/05/02 03:18:59;;;;;;;4.70;2.05;;;;;;;14.32;69.29;99799.38;4494492;31;35058;-79
2023/05/02 03:21:45;;;;;;;6.87;2.22;;;;;;;14.60;68.79;99805.25;4495814;31;33761;-79
2023/05/02 03:24:33;;;;;;;5.80;1.90;;;;;;;14.55;70.02;99805.44;4489889;31;36234;-79
2023/05/02 03:27:19;;;;;;;3.90;2.00;;;;;;;14.38;70.36;99804.34;4495019;31;33751;-78
2023/05/02 03:30:06;;;;;;;6.00;2.28;;;;;;;14.25;70.68;99805.38;4483490;31;34156;-79
2023/05/02 03:32:52;;;;;;;5.63;2.17;;;;;;;14.52;69.58;99804.16;4480812;31;33561;-79
2023/05/02 03:35:41;;;;;;;4.78;1.90;;;;;;;14.48;70.76;99805.09;4483177;31;33078;-79
2023/05/02 03:38:29;;;;;;;5.05;2.17;;;;;;;14.44;70.54;99810.47;4467727;31;33710;-79
2023/05/02 03:41:17;;;;;;;5.57;1.90;;;;;;;14.26;72.50;99817.19;4483383;31;34156;-78
2023/05/02 03:44:03;;;;;;;5.07;2.10;;;;;;;14.23;73.69;99813.19;4494665;31;33739;-79
2023/05/02 03:46:50;;;;;;;5.22;2.10;;;;;;;14.45;74.78;99814.84;4496100;31;32789;-78
2023/05/02 03:49:36;;;;;;;5.80;2.22;;;;;;;14.09;75.45;99813.41;4484204;31;34756;-79
2023/05/02 03:52:23;;;;;;;3.97;2.17;;;;;;;14.37;75.93;99818.44;4492031;31;35478;-79
2023/05/02 03:55:10;;;;;;;3.35;1.95;;;;;;;13.66;81.37;99810.75;4486125;31;35817;-80
2023/05/02 03:57:58;;;;;;;4.18;2.17;;;;;;;14.21;78.39;99814.66;4490358;31;34209;-79
2023/05/02 04:00:44;;;;;;;3.78;2.12;;;;;;;13.92;78.44;99822.53;4494738;31;34405;-79
2023/05/02 04:03:31;;;;;;;5.20;2.10;;;;;;;14.15;76.96;99814.84;4476959;31;34149;-79
2023/05/02 04:06:18;;;;;;;4.68;2.10;;;;;;;14.15;79.59;99825.84;4491308;31;34632;-79
2023/05/02 04:09:05;;;;;;;7.65;2.40;;;;;;;13.91;80.45;99823.66;4494976;31;33345;-78
2023/05/02 04:11:51;;;;;;;4.37;2.20;;;;;;;14.23;79.61;99829.72;4486844;31;33638;-78
2023/05/02 04:14:38;;;;;;;5.43;2.30;;;;;;;14.26;78.29;99818.03;4482038;31;33770;-78
2023/05/02 04:17:24;;;;;;;4.27;2.10;;;;;;;14.14;78.33;99827.00;4494974;31;33734;-78
2023/05/02 04:20:11;;;;;;;5.40;2.13;;;;;;;14.13;76.81;99827.31;4484419;31;33721;-78
2023/05/02 04:22:59;;;;;;;4.20;2.12;;;;;;;14.29;76.88;99833.09;4479962;31;33577;-77
2023/05/02 04:25:52;;;;;;;4.32;2.15;;;;;;;14.04;79.32;99827.34;4493503;31;34074;-77
2023/05/02 04:28:39;;;;;;;5.12;2.40;;;;;;;14.30;77.74;99835.50;4493854;31;33762;-77
2023/05/02 04:31:26;;;;;;;4.32;2.25;;;;;;;14.25;76.87;99837.66;4492993;31;34301;-77
2023/05/02 04:34:13;;;;;;;5.35;2.47;;;;;;;14.46;77.42;99845.97;4458511;31;34651;-77
2023/05/02 04:37:00;;;;;;;4.77;2.20;;;;;;;14.60;76.57;99838.34;4480831;31;31867;-77
2023/05/02 04:39:46;;;;;;;4.47;2.30;;;;;;;14.68;78.23;99842.16;4477311;31;33750;-79
2023/05/02 04:42:34;;;;;;;6.23;2.30;;;;;;;14.49;79.18;99846.13;4469924;31;33263;-81
2023/05/02 04:45:21;;;;;;;7.75;2.70;;;;;;;14.91;77.43;99842.66;4475594;31;33169;-78
2023/05/02 04:48:09;;;;;;;4.05;2.42;;;;;;;14.74;77.73;99838.06;4448308;31;34023;-83
2023/05/02 04:50:56;;;;;;;7.28;2.55;;;;;;;14.91;77.33;99842.66;4473342;31;34533;-82
2023/05/02 04:53:42;;;;;;;5.60;2.80;;;;;;;15.14;77.81;99857.78;4485108;31;33345;-81
2023/05/02 04:56:28;;;;;;;6.30;2.97;;;;;;;15.24;77.65;99856.56;4489348;31;33804;-81
2023/05/02 04:59:15;;;;;;;8.00;3.90;;;;;;;15.55;77.68;99858.88;4480274;31;33538;-82
2023/05/02 05:02:02;;;;;;;5.85;3.40;;;;;;;15.39;76.94;99858.69;4478069;31;33253;-81
2023/05/02 05:04:49;;;;;;;9.00;4.12;;;;;;;15.67;74.15;99853.41;4490458;31;33309;-81
2023/05/02 05:07:36;;;;;;;7.93;3.92;;;;;;;15.62;75.31;99856.37;4491184;31;32474;-81
2023/05/02 05:10:23;;;;;;;7.03;3.78;;;;;;;15.55;76.27;99852.56;4475270;31;35547;-81
2023/05/02 05:13:11;;;;;;;6.75;3.67;;;;;;;15.60;75.77;99861.44;4461711;31;33699;-80
2023/05/02 05:15:58;;;;;;;8.52;3.78;;;;;;;16.06;75.08;99858.75;4475816;31;32993;-82
2023/05/02 05:18:45;;;;;;;6.85;3.15;;;;;;;16.20;72.79;99859.22;4466092;31;34453;-82
2023/05/02 05:21:32;;;;;;;6.62;3.20;;;;;;;15.74;75.77;99863.94;4491598;31;34328;-83
2023/05/02 05:24:19;;;;;;;6.28;3.12;;;;;;;16.00;75.55;99858.16;4471699;31;34525;-82
2023/05/02 05:27:06;;;;;;;5.70;2.80;;;;;;;16.36;74.48;99870.41;4477780;31;34111;-82
2023/05/02 05:29:52;;;;;;;6.62;2.80;;;;;;;16.68;73.65;99863.19;4483889;31;33779;-82
2023/05/02 05:32:38;;;;;;;5.95;3.00;;;;;;;16.46;73.00;99866.41;4470584;31;34088;-81
2023/05/02 05:35:25;;;;;;;6.25;2.62;;;;;;;16.67;72.91;99877.34;4470173;31;34190;-79
2023/05/02 05:38:13;;;;;;;7.75;2.85;;;;;;;16.60;72.85;99877.94;4476325;31;33345;-78
2023/05/02 05:41:00;;;;;;;6.62;2.90;;;;;;;16.76;72.64;99875.25;4493230;31;33295;-78
2023/05/02 05:43:46;;;;;;;6.25;2.95;;;;;;;16.63;74.34;99891.88;4474343;31;34129;-79
2023/05/02 05:46:33;;;;;;;6.50;2.87;;;;;;;16.70;74.54;99884.94;4470617;31;32406;-78
2023/05/02 05:49:21;;;;;;;7.10;3.20;;;;;;;16.56;74.98;99885.28;4481094;31;34241;-80
2023/05/02 05:52:07;;;;;;;5.90;2.72;;;;;;;16.54;74.25;99891.19;4484833;31;33748;-76
2023/05/02 05:54:57;;;;;;;5.27;2.97;;;;;;;16.71;74.33;99894.87;4496048;31;35138;-75
2023/05/02 05:57:43;;;;;;;5.55;3.08;;;;;;;16.64;75.21;99893.47;4484347;31;34570;-75
2023/05/02 06:00:30;;;;;;;6.53;3.17;;;;;;;17.16;71.79;99892.00;4491031;31;33731;-75
2023/05/02 06:03:16;;;;;;;5.85;2.90;;;;;;;17.06;74.45;99898.00;4477546;31;34604;-76
2023/05/02 06:06:03;;;;;;;7.43;3.53;;;;;;;17.13;73.41;99891.84;4496141;31;33517;-75
2023/05/02 06:08:50;;;;;;;8.65;3.20;;;;;;;17.23;71.10;99886.66;4490147;31;33207;-74
2023/05/02 06:11:37;;;;;;;5.25;2.95;;;;;;;17.28;69.58;99888.38;4483292;31;33853;-75
2023/05/02 06:14:24;;;;;;;6.50;2.97;;;;;;;17.03;71.88;99893.94;4495506;31;33725;-74
2023/05/02 06:17:11;;;;;;;6.62;2.97;;;;;;;17.16;73.16;99893.94;4481658;31;34040;-73
2023/05/02 06:19:57;;;;;;;6.30;3.05;;;;;;;17.51;69.51;99880.34;4490818;31;33832;-75
2023/05/02 06:22:43;;;;;;;6.10;2.95;;;;;;;16.98;72.41;99894.19;4496538;31;33330;-75
2023/05/02 06:25:32;;;;;;;7.18;3.30;;;;;;;17.58;69.74;99891.63;4493249;31;33772;-75
2023/05/02 06:28:22;;;;;;;7.05;3.50;;;;;;;17.08;74.42;99899.25;4470626;31;33845;-77
2023/05/02 06:31:08;;;;;;;6.60;2.97;;;;;;;17.48;71.53;99889.38;4475386;31;33374;-75
2023/05/02 06:33:54;;;;;;;6.40;3.20;;;;;;;17.50;70.99;99890.62;4480018;31;34372;-75
2023/05/02 06:36:41;;;;;;;7.45;3.70;;;;;;;17.33;70.38;99910.28;4481019;31;33280;-78
2023/05/02 06:39:27;;;;;;;7.00;3.20;;;;;;;16.90;72.11;99892.34;4480799;31;34867;-76
2023/05/02 06:42:13;;;;;;;7.73;3.50;;;;;;;17.71;73.21;99904.28;4483689;31;34386;-77
2023/05/02 06:45:00;;;;;;;4.95;3.00;;;;;;;17.74;70.65;99895.25;4492222;31;33481;-78
2023/05/02 06:47:46;;;;;;;5.75;3.22;;;;;;;17.79;69.93;99907.28;4498763;31;33952;-79
2023/05/02 06:50:33;;;;;;;7.10;3.50;;;;;;;18.28;69.43;99891.19;4482629;31;35158;-79
2023/05/02 06:53:20;;;;;;;5.37;2.92;;;;;;;18.14;68.86;99904.69;4467105;31;33385;-78
2023/05/02 06:56:06;;;;;;;5.40;3.20;;;;;;;18.34;68.20;99898.09;4464916;31;32054;-77
2023/05/02 06:58:52;;;;;;;9.00;3.33;;;;;;;18.33;70.02;99902.03;4474056;31;36210;-78
2023/05/02 07:01:38;;;;;;;6.10;3.60;;;;;;;18.73;68.01;99898.28;4474069;31;33435;-81
2023/05/02 07:04:25;;;;;;;6.93;3.40;;;;;;;18.93;66.15;99901.94;4493299;31;33402;-81
2023/05/02 07:07:17;;;;;;;6.23;3.30;;;;;;;18.39;68.44;99897.81;4476123;31;31435;-82
2023/05/02 07:10:04;;;;;;;6.00;3.00;;;;;;;19.03;67.71;99900.56;4476837;31;33453;-82
2023/05/02 07:12:51;;;;;;;7.37;4.00;;;;;;;19.15;69.09;99900.44;4464801;31;32338;-79
2023/05/02 07:15:37;;;;;;;5.93;3.30;;;;;;;19.54;66.84;99892.16;4477195;31;33942;-79
2023/05/02 07:18:24;;;;;;;9.25;4.10;;;;;;;19.88;63.69;99900.81;4463286;31;32908;-78
2023/05/02 07:21:11;;;;;;;5.97;3.37;;;;;;;18.85;65.29;99900.16;4462183;31;34452;-82
2023/05/02 07:23:57;;;;;;;7.70;3.20;;;;;;;19.56;67.74;99895.41;4467765;31;34270;-81
2023/05/02 07:26:44;;;;;;;6.87;3.67;;;;;;;20.02;65.65;99889.97;4480137;31;33751;-80
2023/05/02 07:29:30;;;;;;;7.07;3.37;;;;;;;20.17;62.35;99896.59;4476991;31;34512;-84
2023/05/02 07:32:17;;;;;;;7.65;3.62;;;;;;;20.19;62.36;99897.03;4470291;31;33457;-85
2023/05/02 07:35:03;;;;;;;11.27;3.67;;;;;;;20.31;66.06;99905.22;4475097;31;35359;-84
2023/05/02 07:37:50;;;;;;;9.40;3.67;;;;;;;20.31;64.64;99902.41;4476198;31;33210;-84
2023/05/02 07:40:37;;;;;;;7.90;3.67;;;;;;;20.51;65.05;99913.50;4476537;31;33323;-84
2023/05/02 07:43:23;;;;;;;7.77;3.30;;;;;;;20.55;64.42;99906.03;4468588;31;33144;-80
2023/05/02 07:46:09;;;;;;;6.75;3.50;;;;;;;20.13;65.52;99918.00;4483392;31;35160;-80
2023/05/02 07:48:56;;;;;;;9.13;3.55;;;;;;;20.43;65.46;99915.34;4495077;31;32872;-80
2023/05/02 07:51:44;;;;;;;7.80;3.67;;;;;;;20.59;64.44;99902.16;4490199;31;34283;-81
2023/05/02 07:54:30;;;;;;;8.90;3.78;;;;;;;20.97;62.07;99905.12;4467929;31;33739;-80
2023/05/02 07:57:22;;;;;;;5.60;3.57;;;;;;;20.94;62.12;99901.09;4478429;31;33765;-81
2023/05/02 08:00:09;;;;;;;8.48;3.72;;;;;;;20.75;60.56;99903.97;4490865;31;33683;-81
2023/05/02 08:02:58;;;;;;;8.40;3.87;;;;;;;20.73;62.20;99903.56;4479386;31;33327;-83
2023/05/02 08:05:45;;;;;;;7.25;3.60;;;;;;;20.73;62.41;99903.56;4469056;31;33268;-80
2023/05/02 08:08:32;;;;;;;8.23;3.40;;;;;;;21.54;57.87;99904.00;4475642;31;34162;-76
2023/05/02 08:11:20;;;;;;;7.12;3.47;;;;;;;21.29;60.52;99905.62;4474037;31;34382;-76
2023/05/02 08:14:09;;;;;;;9.82;3.45;;;;;;;21.43;60.61;99910.59;4471796;31;32434;-76
2023/05/02 08:16:55;;;;;;;10.13;3.47;;;;;;;21.89;58.11;99904.81;4471357;31;33407;-77
2023/05/02 08:19:41;;;;;;;5.85;3.53;;;;;;;22.23;57.80;99911.97;4473385;31;33505;-77
2023/05/02 08:22:27;;;;;;;6.82;3.55;;;;;;;21.90;57.88;99914.78;4471199;31;33293;-76
2023/05/02 08:25:14;;;;;;;5.78;3.35;;;;;;;22.25;54.74;99911.56;4475550;31;32916;-76
2023/05/02 08:28:00;;;;;;;7.03;3.80;;;;;;;22.20;54.92;99907.16;4474220;31;31875;-78
2023/05/02 08:30:47;;;;;;;5.20;3.53;;;;;;;21.96;57.00;99914.03;4475009;31;33967;-74
2023/05/02 08:33:34;;;;;;;9.52;3.62;;;;;;;21.98;53.87;99911.69;4474535;31;33447;-77
2023/05/02 08:36:23;;;;;;;7.90;3.40;;;;;;;21.72;55.99;99909.00;4464095;31;33209;-76
2023/05/02 08:39:10;;;;;;;8.82;3.60;;;;;;;21.86;54.44;99895.22;4466542;31;33902;-77
2023/05/02 08:41:56;;;;;;;6.65;3.30;;;;;;;21.57;56.24;99902.41;4471992;31;34174;-77
2023/05/02 08:44:43;;;;;;;9.13;3.53;;;;;;;21.99;57.57;99895.72;4472232;31;34191;-76
2023/05/02 08:47:31;;;;;;;7.53;3.60;;;;;;;22.59;55.18;99887.16;4463806;31;32742;-76
2023/05/02 08:50:18;;;;;;;9.30;4.20;;;;;;;22.82;53.26;99886.16;4462738;31;33809;-75
2023/05/02 08:53:06;;;;;;;7.80;4.15;;;;;;;21.96;53.09;99888.13;4469150;31;33434;-76
2023/05/02 08:55:53;;;;;;;9.73;4.50;;;;;;;21.54;56.47;99895.63;4456830;31;34595;-77
2023/05/02 08:58:40;;;;;;;9.20;4.57;;;;;;;21.98;57.23;99897.72;4477888;31;33166;-76
2023/05/02 09:01:29;;;;;;;9.48;4.57;;;;;;;22.24;56.33;99890.44;4477112;31;33527;-76
2023/05/02 09:04:18;;;;;;;12.17;4.57;;;;;;;22.52;54.33;99878.75;4478744;31;34079;-77
2023/05/02 09:07:04;;;;;;;7.70;4.25;;;;;;;22.77;53.21;99890.12;4470715;31;33432;-76
2023/05/02 09:09:51;;;;;;;5.12;3.55;;;;;;;22.69;54.78;99877.28;4478522;31;34614;-75
2023/05/02 09:12:37;;;;;;;15.07;5.77;;;;;;;23.07;52.62;99883.56;4479577;31;33296;-77
2023/05/02 09:15:23;;;;;;;8.27;4.05;;;;;;;22.56;55.35;99878.75;4487894;31;34040;-79
2023/05/02 09:18:18;;;;;;;7.18;3.70;;;;;;;22.93;53.00;99869.47;4496671;31;34650;-78
2023/05/02 09:21:07;;;;;;;8.63;3.55;;;;;;;22.96;51.03;99868.72;4466728;31;34389;-80
2023/05/02 09:23:56;;;;;;;6.47;3.47;;;;;;;23.64;51.96;99878.25;4477607;31;33531;-82
2023/05/02 09:26:44;;;;;;;6.03;3.50;;;;;;;23.67;52.99;99879.47;4469858;31;33638;-79
2023/05/02 09:29:36;;;;;;;6.95;3.37;;;;;;;23.16;52.27;99869.22;4459540;31;33191;-78
2023/05/02 09:32:46;;;;;;;7.20;3.40;;;;;;;24.04;51.05;99876.41;4478046;31;34403;-78
2023/05/02 09:35:32;;;;;;;7.47;3.13;;;;;;;24.24;49.51;99869.22;4471279;31;33809;-78
2023/05/02 09:38:21;;;;;;;5.18;3.65;;;;;;;24.51;48.80;99879.31;4493418;31;34022;-78
2023/05/02 09:41:09;;;;;;;5.43;3.22;;;;;;;24.44;48.60;99886.47;4469744;31;33703;-76
2023/05/02 09:43:56;;;;;;;4.65;3.25;;;;;;;24.12;49.31;99880.81;4474377;31;33573;-79
2023/05/02 09:46:48;;;;;;;5.43;3.08;;;;;;;23.95;51.22;99881.59;4473177;31;33906;-76
2023/05/02 09:49:40;;;;;;;6.72;3.28;;;;;;;24.53;48.78;99876.88;4485146;31;34223;-79
2023/05/02 09:52:27;;;;;;;4.47;2.90;;;;;;;24.68;48.62;99873.69;4477467;31;31845;-75
2023/05/02 09:55:20;;;;;;;5.85;3.00;;;;;;;24.59;48.01;99876.09;4491974;31;34231;-78
2023/05/02 09:58:20;;;;;;;4.28;2.90;;;;;;;24.79;46.37;99872.88;4502305;31;34674;-83
2023/05/02 10:01:06;;;;;;;7.53;3.10;;;;;;;24.78;47.77;99866.47;4485989;31;35114;-82
2023/05/02 10:03:53;;;;;;;6.80;3.00;;;;;;;25.13;47.65;99871.22;4466478;31;32233;-84
2023/05/02 10:06:39;;;;;;;6.57;3.00;;;;;;;24.81;45.52;99870.47;4457247;31;32979;-84
2023/05/02 10:09:28;;;;;;;4.85;2.87;;;;;;;25.37;45.04;99863.16;4477884;31;33102;-84
2023/05/02 10:12:15;;;;;;;4.83;3.10;;;;;;;25.50;44.20;99875.53;4485170;31;33646;-81
2023/05/02 10:15:03;;;;;;;4.97;2.83;;;;;;;25.40;43.73;99867.97;4502175;31;34216;-81
2023/05/02 10:17:50;;;;;;;7.23;2.73;;;;;;;25.66;45.66;99877.06;4480858;31;33204;-79
2023/05/02 10:20:43;;;;;;;4.40;2.83;;;;;;;25.77;44.45;99864.59;4490818;31;33948;-81
2023/05/02 10:23:30;;;;;;;5.62;2.80;;;;;;;25.60;43.12;99865.47;4491843;31;35011;-81
2023/05/02 10:26:16;;;;;;;5.55;2.95;;;;;;;25.43;44.21;99866.34;4483758;31;35718;-82
2023/05/02 10:29:03;;;;;;;5.50;3.00;;;;;;;26.10;42.06;99858.81;4497353;31;34377;-79
2023/05/02 10:31:49;;;;;;;5.72;3.03;;;;;;;26.08;41.92;99866.84;4485107;31;34762;-81
2023/05/02 10:34:35;;;;;;;6.03;2.90;;;;;;;25.84;42.64;99869.38;4482834;31;34653;-81
2023/05/02 10:37:24;;;;;;;9.90;3.30;;;;;;;25.79;44.97;99867.00;4479191;32;34277;-81
2023/05/02 10:40:11;;;;;;;6.20;3.28;;;;;;;25.61;43.90;99867.06;4500804;31;33428;-81
2023/05/02 10:42:57;;;;;;;7.50;3.30;;;;;;;26.09;43.50;99865.63;4490399;31;34114;-82
2023/05/02 10:45:44;;;;;;;7.25;3.40;;;;;;;25.99;42.18;99856.87;4495405;31;34246;-83
2023/05/02 10:48:31;;;;;;;4.75;3.00;;;;;;;26.07;44.00;99860.44;4499292;31;33992;-83
2023/05/02 10:51:28;;;;;;;7.80;3.40;;;;;;;25.99;44.71;99856.87;4495865;31;34502;-80
2023/05/02 10:54:23;;;;;;;5.43;3.20;;;;;;;25.89;43.33;99863.34;4479119;31;33983;-80
2023/05/02 10:57:10;;;;;;;5.85;3.35;;;;;;;25.39;43.87;99848.72;4481539;31;34400;-80
2023/05/02 11:00:23;;;;;;;6.22;3.20;;;;;;;26.40;42.03;99844.94;4480155;31;33744;-80
2023/05/02 11:03:10;;;;;;;6.68;3.25;;;;;;;25.35;44.98;99855.13;4479363;31;35699;-85
2023/05/02 11:06:06;;;;;;;5.62;3.03;;;;;;;25.98;44.04;99848.84;4473790;31;33215;-87
2023/05/02 11:09:17;;;;;;;5.18;3.20;;;;;;;25.88;41.94;99858.16;4477391;31;33903;-86
2023/05/02 11:12:04;;;;;;;5.60;3.35;;;;;;;25.98;43.22;99846.84;4477038;31;33344;-81
2023/05/02 11:14:50;;;;;;;6.40;3.60;;;;;;;24.85;43.79;99840.44;4465704;31;32946;-88
2023/05/02 11:18:00;;;;;;;7.78;3.87;;;;;;;25.75;43.96;99838.12;4464243;31;32012;-83
2023/05/02 11:20:46;;;;;;;4.78;3.50;;;;;;;25.80;43.27;99832.87;4473276;31;34198;-83
2023/05/02 11:23:35;;;;;;;6.28;3.72;;;;;;;26.06;42.75;99835.56;4474313;31;33752;-82
2023/05/02 11:26:22;;;;;;;6.55;3.47;;;;;;;25.84;42.77;99829.28;4463094;31;32949;-86
2023/05/02 11:29:08;;;;;;;8.48;3.60;;;;;;;25.48;43.41;99835.88;4478284;31;33457;-85
2023/05/02 11:31:55;;;;;;;7.50;3.53;;;;;;;25.67;43.85;99833.75;4468052;31;34579;-85
2023/05/02 11:34:41;;;;;;;6.78;3.40;;;;;;;26.31;43.47;99824.97;4471203;31;31995;-86
2023/05/02 11:37:27;;;;;;;6.53;3.27;;;;;;;26.75;44.36;99817.75;4476670;31;32667;-84
2023/05/02 11:40:15;;;;;;;5.55;2.90;;;;;;;26.79;41.04;99818.53;4454771;31;33322;-85
2023/05/02 11:43:12;;;;;;;5.47;3.30;;;;;;;27.21;41.05;99818.50;4474494;31;34093;-83
2023/05/02 11:46:00;;;;;;;8.40;2.60;;;;;;;27.02;41.18;99820.69;4468386;31;33861;-84
2023/05/02 11:48:47;;;;;;;6.57;3.03;;;;;;;26.63;38.47;99805.03;4468723;31;32775;-86
2023/05/02 11:51:34;;;;;;;5.00;2.75;;;;;;;27.02;38.65;99822.72;4483102;31;34272;-86
2023/05/02 11:54:20;;;;;;;5.93;2.85;;;;;;;26.96;38.20;99813.16;4484445;31;34357;-85
2023/05/02 11:57:07;;;;;;;5.75;3.03;;;;;;;27.17;38.73;99810.09;4468862;31;33664;-85
2023/05/02 11:59:56;;;;;;;5.78;2.50;;;;;;;27.31;36.89;99812.75;4465440;31;36572;-85
2023/05/02 12:02:44;;;;;;;8.95;2.60;;;;;;;27.64;37.32;99807.50;4457295;31;32562;-88
2023/05/02 12:05:31;;;;;;;7.07;2.53;;;;;;;27.49;37.17;99806.09;4466753;31;33694;-82
2023/05/02 12:08:27;;;;;;;4.95;2.85;;;;;;;27.02;38.38;99809.44;4488560;31;34537;-81
2023/05/02 12:11:15;;;;;;;14.57;3.65;;;;;;;27.25;39.75;99806.00;4479278;31;33323;-80
2023/05/02 12:14:02;;;;;;;4.72;2.50;;;;;;;26.95;39.85;99800.28;4463831;31;32159;-80
2023/05/02 12:16:49;;;;;;;7.20;2.80;;;;;;;27.52;39.55;99811.69;4466814;31;34714;-82
2023/05/02 12:19:36;;;;;;;7.73;2.80;;;;;;;27.28;37.34;99805.16;4472342;31;35501;-85
2023/05/02 12:22:24;;;;;;;8.80;3.30;;;;;;;27.23;41.42;99805.59;4458883;31;32599;-86
2023/05/02 12:25:10;;;;;;;6.05;2.50;;;;;;;27.27;38.29;99795.13;4451663;31;33892;-85
2023/05/02 12:27:58;;;;;;;8.10;2.90;;;;;;;27.37;38.52;99797.00;4461408;31;34052;-84
2023/05/02 12:30:48;;;;;;;5.73;2.80;;;;;;;27.60;36.58;99801.09;4465660;31;34147;-84
2023/05/02 12:33:42;;;;;;;7.07;2.97;;;;;;;27.01;36.15;99790.16;4442771;31;941323;-82
2023/05/02 12:36:28;;;;;;;7.65;2.53;;;;;;;26.73;35.38;99788.50;4481073;31;32640;-82
2023/05/02 12:39:15;;;;;;;7.97;2.90;;;;;;;26.71;37.47;99800.16;4465436;31;35122;-81
2023/05/02 12:42:12;;;;;;;6.25;2.90;;;;;;;26.43;37.14;99796.34;4469436;31;33828;-81
2023/05/02 12:44:59;;;;;;;11.93;3.10;;;;;;;26.43;38.41;99803.97;4476842;31;34129;-79
2023/05/02 12:47:45;;;;;;;8.82;2.97;;;;;;;26.08;39.12;99805.09;4473735;31;33278;-80
2023/05/02 12:50:38;;;;;;;6.28;3.10;;;;;;;26.06;39.03;99805.47;4469423;31;33595;-86
2023/05/02 12:53:40;;;;;;;9.47;3.03;;;;;;;26.24;37.92;99796.91;4470223;31;33317;-86
2023/05/02 12:56:31;;;;;;;9.37;3.37;;;;;;;26.24;38.75;99799.72;4457892;31;34148;-84
2023/05/02 12:59:31;;;;;;;6.90;2.95;;;;;;;25.83;40.24;99789.22;4455895;31;34876;-81
2023/05/02 13:02:17;;;;;;;8.85;2.97;;;;;;;25.91;40.63;99795.56;4465063;31;34108;-81
2023/05/02 13:05:14;;;;;;;7.57;3.20;;;;;;;25.87;38.24;99798.41;4474475;31;31744;-81
2023/05/02 13:08:01;;;;;;;7.32;2.90;;;;;;;26.00;38.73;99793.09;4454869;31;33228;-79
2023/05/02 13:10:48;;;;;;;9.88;3.42;;;;;;;26.11;37.64;99788.22;4465024;31;32437;-80
2023/05/02 13:13:34;;;;;;;9.37;2.90;;;;;;;25.87;40.29;99791.97;4476242;31;34721;-85
2023/05/02 13:16:21;;;;;;;10.15;3.30;;;;;;;25.87;38.17;99784.38;4476738;31;34536;-86